• Join FlightAware (Why Join?)
  • Login
  • US Flag 
10:04AM EDT


 

Airport Tracker/Info


-or-


 

Live Flight TrackerFlight Track Log ✈ UPS1330 ✈ 02-Mar-2012 ✈ KPHL - KCAE

Flight Track Log - Related Links

Times and Time Zones

All times are in EST time to prevent confusion due to time zone crossing. See the UPS1330 flight status page for this flight to view local times or setup timezone preferences in your user account.

Time Position Orientation Groundspeed Altitude Reporting Facility
EST Latitude Longitude Course Direction KTS MPH feet Rate Location/Type
02:52AM 39.8616 -75.2682 242° Southwest 146 168 1,000  Level FlightAware ADS-B
02:52AM 39.8584 -75.2762 241° Southwest 161 185 1,300 1,320 Climbing FlightAware ADS-B
02:53AM 39.8548 -75.2846 240° Southwest 182 209 1,400 1,200 Climbing FlightAware ADS-B
02:53AM 39.8480 -75.3002 241° Southwest 202 232 1,800 2,040 Climbing FlightAware ADS-B
02:53AM 39.8416 -75.3152 241° Southwest 213 245 2,400 2,520 Climbing FlightAware ADS-B
02:53AM 39.8355 -75.3293 246° West 219 252 2,900 2,460 Climbing FlightAware ADS-B
02:53AM 39.8338 -75.3343 253° West 222 255 3,100 2,220 Climbing FlightAware ADS-B
02:53AM 39.8326 -75.3393 260° West 224 258 3,200 2,520 Climbing FlightAware ADS-B
02:53AM 39.8319 -75.3444 267° West 226 260 3,400 2,520 Climbing FlightAware ADS-B
02:53AM 39.8317 -75.3495 272° West 228 262 3,500 2,760 Climbing FlightAware ADS-B
02:54AM 39.8321 -75.3640 271° West 231 266 4,100 2,820 Climbing FlightAware ADS-B
02:54AM 39.8322 -75.3785 270° West 238 274 4,500 2,520 Climbing FlightAware ADS-B
02:54AM 39.8321 -75.3944 271° West 244 281 5,000 3,000 Climbing FlightAware ADS-B
02:54AM 39.8323 -75.4081 272° West 245 282 5,500 3,960 Climbing FlightAware ADS-B
02:54AM 39.8330 -75.4297 273° West 240 276 6,600 3,900 Climbing FlightAware ADS-B
02:55AM 39.8337 -75.4457 272° West 242 278 7,200 3,420 Climbing FlightAware ADS-B
02:55AM 39.8342 -75.4679 267° West 242 278 8,100 3,360 Climbing FlightAware ADS-B
02:55AM 39.8337 -75.4816 273° West 240 276 8,500 3,120 Climbing FlightAware ADS-B
02:55AM 39.8346 -75.5035 274° West 242 278 9,300 3,180 Climbing FlightAware ADS-B
02:55AM 39.8356 -75.5208 269° West 244 281 10,000 1,920 Climbing FlightAware ADS-B
02:56AM 39.8350 -75.5572 269° West 273 314 10,500 1,440 Climbing FlightAware ADS-B
02:56AM 39.8345 -75.6026 268° West 295 339 11,200 1,620 Climbing FlightAware ADS-B
02:56AM 39.8341 -75.6207 263° West 301 346 11,500 2,100 Climbing FlightAware ADS-B
02:56AM 39.8334 -75.6277 252° West 305 351 11,700 2,460 Climbing FlightAware ADS-B
02:57AM 39.8276 -75.6509 244° Southwest 314 361 12,200 2,160 Climbing FlightAware ADS-B
02:57AM 39.8074 -75.7040 238° Southwest 330 380 13,300 2,400 Climbing FlightAware ADS-B
02:58AM 39.7841 -75.7531 237° Southwest 334 384 14,600 2,580 Climbing FlightAware ADS-B
02:58AM 39.7651 -75.7908 236° Southwest 338 389 15,500 2,400 Climbing FlightAware ADS-B
02:59AM 39.7386 -75.8427 237° Southwest 343 395 16,700 2,340 Climbing FlightAware ADS-B
02:59AM 39.7117 -75.8961 237° Southwest 343 395 17,900 2,280 Climbing FlightAware ADS-B
03:00AM 39.6853 -75.9491 237° Southwest 344 396 19,100 2,220 Climbing FlightAware ADS-B
03:00AM 39.6592 -76.0016 237° Southwest 346 398 20,200 2,100 Climbing FlightAware ADS-B
03:01AM 39.6328 -76.0546 237° Southwest 349 402 21,200 1,860 Climbing FlightAware ADS-B
03:01AM 39.6062 -76.1075 237° Southwest 351 404 22,100 1,740 Climbing FlightAware ADS-B
03:02AM 39.5792 -76.1612 237° Southwest 353 406 23,000 1,620 Climbing FlightAware ADS-B
03:02AM 39.5517 -76.2159 237° Southwest 357 411 23,800 1,440 Climbing FlightAware ADS-B
03:03AM 39.5239 -76.2708 237° Southwest 361 415 24,500 1,440 Climbing FlightAware ADS-B
03:03AM 39.4960 -76.3256 236° Southwest 365 420 25,300 1,500 Climbing FlightAware ADS-B
03:04AM 39.4673 -76.3807 232° Southwest 372 428 26,000 1,500 Climbing FlightAware ADS-B
03:04AM 39.4369 -76.4313 228° Southwest 381 438 26,800 1,740 Climbing FlightAware ADS-B
03:05AM 39.4009 -76.4831 225° Southwest 388 447 27,700 1,740 Climbing FlightAware ADS-B
03:05AM 39.3598 -76.5355 224° Southwest 395 455 28,600 1,620 Climbing FlightAware ADS-B
03:06AM 39.3194 -76.5852 223° Southwest 398 458 29,400 1,560 Climbing FlightAware ADS-B
03:06AM 39.2780 -76.6359 224° Southwest 404 465 30,200 1,560 Climbing FlightAware ADS-B
03:07AM 39.2374 -76.6861 223° Southwest 406 467 31,000 1,680 Climbing FlightAware ADS-B
03:07AM 39.1931 -76.7401 224° Southwest 403 464 32,000 1,740 Climbing FlightAware ADS-B
03:08AM 39.1497 -76.7933 224° Southwest 402 463 32,900 1,560 Climbing FlightAware ADS-B
03:08AM 39.0899 -76.8666 216° Southwest 398 458 34,000  Climbing FlightAware ADS-B
03:40AM 36.1756 -79.4706 210° Southwest 453 521 34,000  Level Atlanta Center
03:41AM 36.0800 -79.5400 212° Southwest 430 495 34,000  Level Atlanta Center
03:42AM 35.9828 -79.6147 212° Southwest 419 482 34,000  Level Atlanta Center
03:43AM 35.8792 -79.6947 210° Southwest 407 468 34,000  Level Atlanta Center
03:44AM 35.7814 -79.7639 212° Southwest 402 463 34,000  Level Atlanta Center
03:45AM 35.6900 -79.8353 211° Southwest 402 463 34,000  Level Atlanta Center
03:46AM 35.5925 -79.9067 211° Southwest 402 463 34,000  Level Atlanta Center
03:47AM 35.5069 -79.9697 212° Southwest 402 463 34,000  Level Atlanta Center
03:48AM 35.4133 -80.0406 211° Southwest 397 457 34,000  Level Atlanta Center
03:50AM 35.2625 -80.1525 211° Southwest 397 457 34,000 -540 Level Jacksonville Center
03:51AM 35.1681 -80.2214 211° Southwest 402 463 32,700 -2,280 Descending Jacksonville Center
03:52AM 35.0736 -80.2903 211° Southwest 402 463 29,500 -2,880 Descending Jacksonville Center
03:53AM 34.9750 -80.3617 211° Southwest 406 467 27,000 -2,640 Descending Jacksonville Center
03:54AM 34.8825 -80.4303 209° Southwest 400 460 24,300 -2,640 Descending Jacksonville Center
03:55AM 34.7981 -80.4883 212° Southwest 392 451 21,800 -2,520 Descending Jacksonville Center
03:56AM 34.7078 -80.5564 211° Southwest 379 436 19,300 -2,400 Descending Jacksonville Center
03:57AM 34.6211 -80.6194 210° Southwest 374 430 17,000 -2,340 Descending Jacksonville Center
03:58AM 34.5389 -80.6769 213° Southwest 364 419 14,700 -2,160 Descending Jacksonville Center
03:59AM 34.4606 -80.7394 223° Southwest 364 419 12,700 -1,860 Descending Jacksonville Center
04:00AM 34.3950 -80.8142 232° Southwest 343 395 11,000 -1,080 Descending Jacksonville Center
04:01AM 34.3403 -80.8983 232° Southwest 328 377 10,600 -480 Descending Jacksonville Center
04:02AM 34.2892 -80.9775 229° Southwest 315 362 10,100 -900 Descending Jacksonville Center
04:03AM 34.2422 -81.0439 233° Southwest 284 327 8,800 -1,260 Descending Jacksonville Center
04:04AM 34.2014 -81.1100 229° Southwest 272 313 7,600 -1,380 Descending Jacksonville Center
04:05AM 34.1564 -81.1736 233° Southwest 261 300 6,100 -1,440 Descending Jacksonville Center
04:06AM 34.1136 -81.2422 214° Southwest 256 295 4,800 -1,320 Descending Jacksonville Center
04:07AM 34.0536 -81.2908 135° Southeast 256 295 3,500 -1,320 Descending Jacksonville Center
04:14AM 33.5192 -80.6539 135° Southeast  Level FlightAware Approximate